Main page
METAR-TAF:

METAR-TAF

Airports :

Winter Haven's Gilbert Airport

Winter Haven, Florida, United States

latitude: 28-03-38N, longitude: 081-45-27W, elevation: 144 ft

Current weather observation

The report was made 25 minutes ago, at 13:13 UTC
Wind 5 mph from the South/Southeast
Temperature 79°F
Humidity 84%
Pressure 30.09 in. Hg
Overcast at a height of 600 ft

METAR: KGIF 281313Z AUTO 16004KT OVC006 26/23 A3009 RMK AO2 T02560233

Time: 09:38 (13:38 UTC)


TAF: missing

Weather observations and forecasts of more than 4000 airports (METAR and TAF reports).

The available stations are represented by yellow and red dots on the map.

Hover mouse over dot to see the name of the station.

Then click to see weather observations and forecasts.

To change the map : click on the green buttons with a black cross to zoom in, on the green button with a dash to zoom out, or on the green arrows for adjacent maps.


METAR-TAF: